Time;durP1;ratioP1;P1;durP2;ratioP2;P2;SDS_P1;SDS_P2;PMS_P1;PMS_P2;Temp;Humidity;BMP_temperature;BMP_pressure;BME280_temperature;BME280_humidity;BME280_pressure;Samples;Min_cycle;Max_cycle;Signal;HPM_P1;HPM_P2
2022/09/20 05:04:21;;;;;;;7.18;2.78;;;10.00;99.90;;;;;;6012869;23;20020;-75
2022/09/20 05:07:06;;;;;;;8.32;2.60;;;10.00;99.90;;;;;;5990190;24;20264;-75
2022/09/20 05:09:44;;;;;;;6.70;2.58;;;9.90;99.90;;;;;;5990389;24;20008;-76
2022/09/20 05:12:33;;;;;;;4.65;1.90;;;10.00;99.90;;;;;;5991143;24;20004;-76
2022/09/20 05:15:10;;;;;;;6.97;2.08;;;10.00;99.90;;;;;;5990800;24;20015;-76
2022/09/20 05:18:11;;;;;;;5.32;2.65;;;10.00;99.90;;;;;;5990406;24;20012;-76
2022/09/20 05:20:55;;;;;;;5.10;2.38;;;10.10;99.90;;;;;;5994594;23;20008;-77
2022/09/20 05:23:45;;;;;;;7.65;2.10;;;10.10;99.90;;;;;;5996119;23;20016;-75
2022/09/20 05:26:18;;;;;;;5.35;2.60;;;10.10;99.90;;;;;;5991076;24;20004;-76
2022/09/20 05:29:13;;;;;;;6.60;2.50;;;10.10;99.90;;;;;;5991427;24;20105;-77
2022/09/20 05:32:24;;;;;;;4.35;1.88;;;10.00;99.90;;;;;;5990281;24;20020;-77
2022/09/20 05:35:33;;;;;;;8.00;2.50;;;10.00;99.90;;;;;;5991050;24;20015;-76
2022/09/20 05:38:42;;;;;;;9.50;2.70;;;9.90;99.90;;;;;;5991050;24;20020;-77
2022/09/20 05:41:57;;;;;;;5.93;2.22;;;9.80;99.90;;;;;;5990921;24;20004;-77
2022/09/20 05:45:01;;;;;;;6.65;2.13;;;9.80;99.90;;;;;;5990382;24;20015;-77
2022/09/20 05:47:58;;;;;;;7.40;2.13;;;9.70;99.90;;;;;;5990763;24;20007;-77
2022/09/20 05:50:36;;;;;;;6.95;2.65;;;9.70;99.90;;;;;;5988888;23;20052;-78
2022/09/20 05:53:21;;;;;;;;;;;9.70;99.90;;;;;;5989625;24;20012;-76
2022/09/20 05:56:16;;;;;;;7.25;2.72;;;9.80;99.90;;;;;;5991386;24;19903;-76
2022/09/20 05:59:22;;;;;;;;;;;;;;;;;;;;;
2022/09/20 06:06:08;;;;;;;12.30;3.15;;;10.00;99.90;;;;;;6020627;23;20014;-77
2022/09/20 06:09:03;;;;;;;11.02;2.90;;;10.10;99.90;;;;;;6020031;23;20027;-77
2022/09/20 06:11:40;;;;;;;8.40;3.00;;;10.10;99.90;;;;;;6020497;23;20297;-77
2022/09/20 06:14:12;;;;;;;8.35;3.30;;;10.20;99.90;;;;;;6019658;23;20067;-77
2022/09/20 06:17:12;;;;;;;5.45;2.67;;;10.30;99.90;;;;;;6022063;23;20003;-79
2022/09/20 06:20:02;;;;;;;8.98;2.30;;;10.40;99.90;;;;;;6028034;23;20000;-77
2022/09/20 06:22:50;;;;;;;7.43;2.42;;;10.40;99.90;;;;;;6028820;23;20059;-77
2022/09/20 06:26:09;;;;;;;8.57;2.65;;;10.50;99.90;;;;;;6025858;23;20196;-77
2022/09/20 06:28:40;;;;;;;5.53;2.38;;;10.50;99.90;;;;;;6005881;23;20012;-79
2022/09/20 06:31:10;;;;;;;7.32;2.63;;;10.50;99.90;;;;;;6030533;23;20004;-80
2022/09/20 06:33:56;;;;;;;7.30;2.65;;;10.50;99.90;;;;;;6025897;23;20008;-79
2022/09/20 06:42:37;;;;;;;7.45;2.65;;;10.40;99.90;;;;;;6020797;23;20011;-76
2022/09/20 06:45:04;;;;;;;9.65;3.22;;;10.40;99.90;;;;;;6019495;23;20015;-77
2022/09/20 06:47:29;;;;;;;8.95;2.50;;;10.40;99.90;;;;;;6017359;23;20036;-76
2022/09/20 06:49:57;;;;;;;5.90;2.40;;;10.30;99.90;;;;;;6018526;23;20004;-76
2022/09/20 06:52:23;;;;;;;7.13;2.40;;;10.30;99.90;;;;;;6016675;23;20171;-77
2022/09/20 06:54:52;;;;;;;7.88;3.05;;;10.30;99.90;;;;;;6017965;23;20109;-76
2022/09/20 06:57:26;;;;;;;5.43;2.33;;;10.30;99.90;;;;;;6017409;23;20189;-77
2022/09/20 06:59:51;;;;;;;10.15;2.80;;;10.20;99.90;;;;;;6020666;23;20045;-76
2022/09/20 07:02:17;;;;;;;8.43;2.78;;;10.30;99.90;;;;;;6020044;23;20019;-77
2022/09/20 07:04:43;;;;;;;8.23;2.67;;;10.30;99.90;;;;;;6044265;23;20197;-76
2022/09/20 07:07:16;;;;;;;6.18;2.22;;;10.30;99.90;;;;;;6021577;23;20145;-77
2022/09/20 07:09:42;;;;;;;8.02;2.30;;;10.40;99.90;;;;;;6046256;23;20062;-76
2022/09/20 07:12:10;;;;;;;9.65;2.30;;;10.40;99.90;;;;;;6021697;23;20288;-76
2022/09/20 07:14:36;;;;;;;8.80;2.70;;;10.50;99.90;;;;;;6046394;23;20004;-77
2022/09/20 07:17:03;;;;;;;11.05;3.05;;;10.60;99.90;;;;;;6021128;23;20066;-77
2022/09/20 07:19:28;;;;;;;7.35;2.10;;;10.60;99.90;;;;;;6020334;23;20008;-78
2022/09/20 07:21:54;;;;;;;9.48;2.78;;;10.70;99.90;;;;;;6046093;23;20075;-77
2022/09/20 07:24:20;;;;;;;7.03;2.17;;;10.80;99.90;;;;;;6020639;23;20058;-77
2022/09/20 07:27:04;;;;;;;8.02;2.40;;;11.10;99.90;;;;;;6045587;23;20036;-77
2022/09/20 07:29:34;;;;;;;8.73;2.30;;;11.40;99.90;;;;;;6045282;23;20006;-76
2022/09/20 07:31:59;;;;;;;8.52;2.60;;;11.60;99.90;;;;;;6044527;23;20178;-77
2022/09/20 07:34:26;;;;;;;8.77;2.42;;;11.70;99.90;;;;;;6020400;23;20010;-79
2022/09/20 07:36:51;;;;;;;6.20;2.53;;;11.70;99.90;;;;;;6020752;23;20196;-76
2022/09/20 07:39:17;;;;;;;6.68;2.35;;;11.60;99.90;;;;;;6045439;23;20146;-79
2022/09/20 07:41:49;;;;;;;7.50;2.38;;;11.70;99.90;;;;;;6043770;23;20223;-78
2022/09/20 07:44:26;;;;;;;8.98;2.22;;;11.70;99.90;;;;;;6045968;23;20309;-77
2022/09/20 07:46:54;;;;;;;10.68;2.38;;;11.80;99.90;;;;;;6045570;23;20032;-77
2022/09/20 07:49:21;;;;;;;8.85;2.25;;;11.80;99.90;;;;;;6045389;23;20042;-77
2022/09/20 07:51:51;;;;;;;5.32;2.13;;;11.90;99.90;;;;;;6045703;23;20210;-76
2022/09/20 07:54:19;;;;;;;6.35;2.75;;;11.90;99.90;;;;;;6045783;23;20005;-77
2022/09/20 07:56:45;;;;;;;;;;;11.80;99.90;;;;;;6045681;23;20003;-77
2022/09/20 07:59:12;;;;;;;11.18;2.30;;;11.90;99.90;;;;;;6043917;23;19902;-77
2022/09/20 08:01:38;;;;;;;8.70;2.50;;;12.10;99.90;;;;;;6044464;23;20074;-78
2022/09/20 08:04:14;;;;;;;9.02;1.83;;;12.30;99.90;;;;;;6019964;23;20014;-76
2022/09/20 08:06:44;;;;;;;8.05;1.63;;;12.50;99.90;;;;;;6044993;23;20011;-77
2022/09/20 08:09:11;;;;;;;10.50;1.67;;;12.70;99.90;;;;;;6045650;23;20006;-77
2022/09/20 08:11:38;;;;;;;4.50;1.40;;;12.90;99.90;;;;;;6045253;23;20193;-77
2022/09/20 08:14:05;;;;;;;6.70;1.30;;;13.00;99.90;;;;;;6020091;23;20193;-77
2022/09/20 08:16:31;;;;;;;6.80;1.35;;;13.00;99.90;;;;;;6043375;23;20003;-78
2022/09/20 08:19:01;;;;;;;6.35;1.60;;;13.20;99.90;;;;;;6019691;23;20050;-77
2022/09/20 08:21:33;;;;;;;10.05;2.03;;;13.30;99.90;;;;;;6045512;23;20036;-77
2022/09/20 08:23:59;;;;;;;9.95;2.10;;;13.30;99.90;;;;;;6049501;23;20006;-75
2022/09/20 08:26:27;;;;;;;7.65;2.70;;;13.30;99.90;;;;;;6021612;23;20303;-75
2022/09/20 08:28:55;;;;;;;10.18;2.22;;;13.60;99.90;;;;;;6045219;23;20061;-75
2022/09/20 08:31:26;;;;;;;8.13;1.40;;;13.90;99.90;;;;;;6008958;23;20176;-76
2022/09/20 08:33:53;;;;;;;8.38;1.83;;;14.10;99.90;;;;;;6046010;23;19995;-77
2022/09/20 08:36:24;;;;;;;7.30;2.40;;;14.10;99.90;;;;;;6020311;23;20048;-75
2022/09/20 08:38:51;;;;;;;6.45;1.52;;;14.10;99.90;;;;;;6045369;23;20006;-78
2022/09/20 08:41:30;;;;;;;6.72;1.35;;;13.90;99.90;;;;;;6044082;23;20070;-75
2022/09/20 08:44:10;;;;;;;6.38;1.75;;;13.70;99.90;;;;;;6044306;23;20059;-76
2022/09/20 08:46:43;;;;;;;4.28;1.30;;;13.70;99.90;;;;;;6042684;23;20086;-77
2022/09/20 08:49:15;;;;;;;6.50;1.40;;;13.90;99.90;;;;;;6043789;23;20019;-75
2022/09/20 08:51:42;;;;;;;6.53;1.45;;;14.20;99.90;;;;;;6044423;23;19995;-75
2022/09/20 08:54:45;;;;;;;4.18;0.98;;;14.50;99.20;;;;;;6044174;23;20014;-76
2022/09/20 08:57:32;;;;;;;8.82;1.20;;;14.80;98.40;;;;;;6018030;23;20242;-76
2022/09/20 09:00:04;;;;;;;3.97;1.20;;;14.90;97.90;;;;;;6017668;23;20011;-77
2022/09/20 09:02:33;;;;;;;7.32;1.20;;;15.00;97.30;;;;;;6044229;23;19999;-75
2022/09/20 09:05:32;;;;;;;6.03;1.10;;;15.10;96.20;;;;;;6042484;23;20010;-75
2022/09/20 09:08:33;;;;;;;5.97;1.13;;;15.30;95.70;;;;;;6045235;23;20003;-75
2022/09/20 09:11:08;;;;;;;5.55;0.93;;;15.20;96.10;;;;;;6043274;23;20015;-75
2022/09/20 09:13:54;;;;;;;6.97;1.08;;;15.20;95.70;;;;;;6044839;23;20055;-75
2022/09/20 09:16:23;;;;;;;8.32;1.13;;;15.00;96.10;;;;;;6044968;23;20023;-75
2022/09/20 09:18:52;;;;;;;4.47;1.60;;;14.80;95.90;;;;;;6019374;23;20055;-76
2022/09/20 09:21:17;;;;;;;;;;;14.50;96.60;;;;;;6045868;23;20368;-75
2022/09/20 09:23:56;;;;;;;6.97;1.90;;;14.40;97.00;;;;;;6044945;23;19906;-75
2022/09/20 09:26:24;;;;;;;7.07;1.45;;;14.30;97.10;;;;;;6045156;23;20008;-75
2022/09/20 09:29:17;;;;;;;6.00;1.55;;;14.10;96.60;;;;;;6019596;23;20302;-75
2022/09/20 09:31:46;;;;;;;7.28;1.02;;;14.00;96.50;;;;;;6046183;23;20305;-75
2022/09/20 09:34:37;;;;;;;6.30;0.90;;;13.80;96.10;;;;;;6045699;23;20030;-75
2022/09/20 09:37:22;;;;;;;4.38;0.95;;;13.80;96.00;;;;;;6022508;23;19999;-75
2022/09/20 09:40:08;;;;;;;8.32;2.15;;;13.90;96.10;;;;;;6045892;23;20196;-75
2022/09/20 09:42:34;;;;;;;8.15;1.08;;;14.20;96.30;;;;;;6046163;23;20099;-76
2022/09/20 09:45:27;;;;;;;3.53;1.13;;;14.40;95.50;;;;;;6047006;23;20101;-76
2022/09/20 09:47:54;;;;;;;5.97;1.40;;;14.60;95.70;;;;;;6046897;23;20039;-74
2022/09/20 09:50:25;;;;;;;5.35;1.00;;;14.90;94.60;;;;;;6044780;23;20015;-75
2022/09/20 09:53:01;;;;;;;5.00;0.85;;;15.20;94.20;;;;;;6045254;23;20054;-76
2022/09/20 09:55:57;;;;;;;4.32;0.88;;;15.10;93.60;;;;;;6043752;23;20003;-76
2022/09/20 09:58:31;;;;;;;6.80;1.40;;;15.10;92.90;;;;;;6017010;23;20010;-75
2022/09/20 10:01:04;;;;;;;4.05;0.85;;;15.00;93.00;;;;;;6042818;23;20015;-75
2022/09/20 10:03:48;;;;;;;6.07;1.30;;;15.20;92.60;;;;;;6019137;23;20011;-75
2022/09/20 10:06:27;;;;;;;6.30;1.60;;;15.30;91.70;;;;;;6045026;23;20009;-74
2022/09/20 10:09:07;;;;;;;3.47;0.80;;;15.40;91.70;;;;;;6043461;23;20213;-76
2022/09/20 10:11:58;;;;;;;3.67;1.40;;;15.70;91.20;;;;;;6044078;23;20011;-76
2022/09/20 10:15:02;;;;;;;5.15;0.90;;;16.00;91.10;;;;;;6019204;23;20055;-75
2022/09/20 10:17:37;;;;;;;8.18;1.40;;;16.30;91.10;;;;;;5997445;23;20004;-75
2022/09/20 10:20:19;;;;;;;5.10;0.98;;;16.50;91.20;;;;;;6021244;23;20023;-76
2022/09/20 10:23:20;;;;;;;5.72;0.80;;;16.90;90.70;;;;;;6046391;23;20174;-76
2022/09/20 10:26:03;;;;;;;4.22;0.90;;;17.00;89.50;;;;;;6047179;23;20039;-76
2022/09/20 10:28:56;;;;;;;4.20;0.75;;;17.00;89.30;;;;;;6046486;23;20033;-75
2022/09/20 10:31:56;;;;;;;6.82;0.90;;;17.00;87.20;;;;;;6023190;23;20030;-74
2022/09/20 10:34:48;;;;;;;6.03;0.90;;;17.00;87.60;;;;;;6045704;23;20007;-76
2022/09/20 10:37:35;;;;;;;5.97;1.25;;;17.10;89.10;;;;;;6046857;23;20071;-76
2022/09/20 10:40:14;;;;;;;4.27;1.20;;;17.20;89.30;;;;;;6045717;23;20046;-76
2022/09/20 10:43:16;;;;;;;4.40;0.75;;;17.30;87.60;;;;;;6045903;23;20007;-75
2022/09/20 10:45:55;;;;;;;6.15;1.73;;;17.50;88.00;;;;;;6021526;23;20011;-76
2022/09/20 10:48:48;;;;;;;3.58;0.70;;;17.70;86.90;;;;;;6047234;23;20018;-77
2022/09/20 10:51:35;;;;;;;3.05;0.88;;;17.70;82.90;;;;;;6045381;23;20239;-77
2022/09/20 10:54:28;;;;;;;5.03;0.80;;;17.30;82.80;;;;;;6046746;23;20008;-77
2022/09/20 10:58:04;;;;;;;4.65;0.80;;;17.20;84.10;;;;;;6046905;23;20233;-78
2022/09/20 11:04:52;;;;;;;5.80;1.08;;;17.20;83.60;;;;;;6046003;23;20038;-77
2022/09/20 11:07:52;;;;;;;5.85;1.20;;;17.60;83.50;;;;;;6046696;23;20003;-78
2022/09/20 11:10:46;;;;;;;7.90;0.70;;;17.90;83.30;;;;;;6048030;23;20004;-78
2022/09/20 11:13:46;;;;;;;3.97;0.68;;;18.50;79.40;;;;;;6050235;23;20293;-78
2022/09/20 11:20:36;;;;;;;3.25;0.88;;;19.20;77.30;;;;;;5991029;24;20052;-80
2022/09/20 11:23:42;;;;;;;4.30;0.80;;;19.20;77.00;;;;;;5988250;23;20007;-76
2022/09/20 11:26:30;;;;;;;6.38;0.98;;;18.60;76.50;;;;;;6062416;23;20036;-79
2022/09/20 11:29:34;;;;;;;5.68;1.00;;;18.50;77.30;;;;;;6061072;23;20007;-80
2022/09/20 11:33:17;;;;;;;5.93;0.80;;;18.70;77.50;;;;;;6005504;23;20023;-76
2022/09/20 11:36:19;;;;;;;;;;;;;;;;;;;;;
2022/09/20 11:39:40;;;;;;;4.00;0.60;;;22.70;69.70;;;;;;6014922;23;20007;-78
2022/09/20 11:42:58;;;;;;;2.53;0.63;;;23.90;66.50;;;;;;5931073;24;20027;-79
2022/09/20 11:50:31;;;;;;;1.75;0.60;;;23.30;62.80;;;;;;5904257;24;20028;-76
2022/09/20 11:53:13;;;;;;;4.60;1.05;;;24.40;62.30;;;;;;5903179;24;20012;-77
2022/09/20 11:55:53;;;;;;;4.25;1.10;;;25.00;61.10;;;;;;5864066;24;20060;-77
2022/09/20 11:58:21;;;;;;;5.00;0.70;;;25.80;59.20;;;;;;5904121;24;20009;-77
2022/09/20 12:00:58;;;;;;;4.75;0.57;;;26.20;59.50;;;;;;5903289;24;20299;-75
2022/09/20 12:03:49;;;;;;;3.13;0.70;;;26.60;56.50;;;;;;5883138;24;20026;-78
2022/09/20 12:06:21;;;;;;;2.83;0.50;;;25.70;57.20;;;;;;5850532;24;20011;-75
2022/09/20 12:08:51;;;;;;;3.88;0.70;;;25.90;56.70;;;;;;5848856;24;20406;-77
2022/09/20 12:11:30;;;;;;;3.38;0.70;;;24.60;58.60;;;;;;5850307;24;20073;-78
2022/09/20 12:14:07;;;;;;;2.75;0.68;;;23.90;59.40;;;;;;5849342;24;20350;-76
2022/09/20 12:16:42;;;;;;;4.05;0.73;;;23.50;58.30;;;;;;5872148;24;20334;-77
2022/09/20 12:19:13;;;;;;;4.60;0.65;;;23.20;60.20;;;;;;5903661;24;20067;-76
2022/09/20 12:21:57;;;;;;;2.40;0.50;;;22.90;59.70;;;;;;5970733;23;20011;-76
2022/09/20 12:24:57;;;;;;;6.10;0.85;;;22.90;60.00;;;;;;6015965;23;20046;-78
2022/09/20 12:27:32;;;;;;;3.28;0.80;;;23.10;59.30;;;;;;6009299;23;20024;-77
2022/09/20 12:33:19;;;;;;;2.58;0.50;;;25.00;56.40;;;;;;5992327;23;20066;-75
2022/09/20 12:36:16;;;;;;;3.42;0.60;;;26.10;54.10;;;;;;5992245;23;20289;-76
2022/09/20 12:38:47;;;;;;;3.88;0.68;;;26.40;53.20;;;;;;6017300;23;20318;-75
2022/09/20 12:41:15;;;;;;;4.13;0.80;;;26.70;52.80;;;;;;5992521;23;20018;-78
2022/09/20 12:44:03;;;;;;;3.13;0.50;;;27.00;53.00;;;;;;6015284;23;20011;-75
2022/09/20 12:46:42;;;;;;;3.92;1.00;;;27.80;53.30;;;;;;6016546;23;20230;-77
2022/09/20 12:52:49;;;;;;;2.97;0.70;;;28.60;51.20;;;;;;6016779;23;20008;-76
2022/09/20 12:55:48;;;;;;;3.42;0.90;;;28.20;53.20;;;;;;6016829;23;20044;-75
2022/09/20 12:58:42;;;;;;;2.78;0.52;;;29.00;51.60;;;;;;5992110;23;20018;-76
2022/09/20 13:01:08;;;;;;;2.90;0.68;;;30.80;50.30;;;;;;6016359;23;20008;-77
2022/09/20 13:04:22;;;;;;;3.97;0.70;;;31.50;47.30;;;;;;6026813;23;20024;-78
2022/09/20 13:06:48;;;;;;;1.77;0.60;;;31.20;47.00;;;;;;6008094;23;20007;-77
2022/09/20 13:09:15;;;;;;;3.97;0.90;;;31.40;46.40;;;;;;6047922;23;20030;-77
2022/09/20 13:11:53;;;;;;;5.18;0.90;;;32.00;46.40;;;;;;6021821;23;20331;-76
2022/09/20 13:14:23;;;;;;;3.05;0.63;;;31.60;46.00;;;;;;6045803;23;20058;-77
2022/09/20 13:17:12;;;;;;;3.28;0.65;;;32.50;46.30;;;;;;6045506;23;20232;-76
2022/09/20 13:19:49;;;;;;;3.65;0.70;;;33.20;44.80;;;;;;6047759;23;20059;-76
2022/09/20 13:22:30;;;;;;;3.40;0.70;;;33.40;44.50;;;;;;6045628;23;20361;-78
2022/09/20 13:25:07;;;;;;;2.42;0.60;;;33.10;44.80;;;;;;6046099;23;20285;-79
2022/09/20 13:31:20;;;;;;;3.03;0.40;;;33.00;43.50;;;;;;6046804;23;20025;-75
2022/09/20 13:33:51;;;;;;;4.47;0.68;;;32.20;43.70;;;;;;6021322;23;20007;-75
2022/09/20 13:36:27;;;;;;;3.97;0.68;;;30.00;45.60;;;;;;6044415;23;20289;-75
2022/09/20 13:38:55;;;;;;;2.30;0.50;;;28.70;47.30;;;;;;6046374;23;20004;-76
2022/09/20 13:41:21;;;;;;;3.53;0.80;;;27.10;47.80;;;;;;6047074;23;20070;-76
2022/09/20 13:43:49;;;;;;;1.63;0.50;;;25.40;49.80;;;;;;6046571;23;20079;-76
2022/09/20 13:46:19;;;;;;;3.20;0.68;;;24.30;52.50;;;;;;6046671;23;20048;-75
2022/09/20 13:48:47;;;;;;;3.00;0.50;;;23.40;53.40;;;;;;6046314;23;20034;-76
2022/09/20 13:51:18;;;;;;;3.00;0.70;;;22.80;55.40;;;;;;6047046;23;19998;-77
2022/09/20 13:53:45;;;;;;;5.28;0.63;;;22.00;56.70;;;;;;6046529;23;20352;-76
2022/09/20 13:56:24;;;;;;;4.28;1.00;;;21.20;58.50;;;;;;6046675;23;20225;-76
2022/09/20 13:58:51;;;;;;;3.38;0.88;;;20.30;62.60;;;;;;6045316;23;20007;-76
2022/09/20 14:01:34;;;;;;;3.85;0.82;;;19.50;64.40;;;;;;6046898;23;20003;-78
2022/09/20 14:04:16;;;;;;;5.35;1.00;;;19.20;65.50;;;;;;6046201;23;20049;-76
2022/09/20 14:06:43;;;;;;;5.57;0.95;;;18.80;66.70;;;;;;6044980;23;20193;-75
2022/09/20 14:09:21;;;;;;;3.25;0.90;;;18.50;67.70;;;;;;6044781;23;20000;-76
2022/09/20 14:11:47;;;;;;;4.38;0.70;;;18.00;69.30;;;;;;6046423;23;20014;-77
2022/09/20 14:14:13;;;;;;;5.30;0.75;;;17.70;70.30;;;;;;6046754;23;20000;-76
2022/09/20 14:16:45;;;;;;;3.95;1.30;;;17.50;71.70;;;;;;6045867;23;20003;-76
2022/09/20 14:19:30;;;;;;;2.47;0.85;;;17.00;72.80;;;;;;6021030;23;20007;-76
2022/09/20 14:21:58;;;;;;;3.97;1.20;;;16.60;74.40;;;;;;6045559;23;20011;-74
2022/09/20 14:24:34;;;;;;;4.68;1.00;;;16.40;75.70;;;;;;6046681;23;20007;-75
2022/09/20 14:27:14;;;;;;;4.93;1.08;;;16.30;76.80;;;;;;6046103;23;20289;-76
2022/09/20 14:30:02;;;;;;;4.57;1.00;;;16.40;77.20;;;;;;6047149;23;20010;-76
2022/09/20 14:32:50;;;;;;;7.47;1.50;;;16.40;77.10;;;;;;6046984;23;20079;-76
2022/09/20 14:35:21;;;;;;;4.28;1.27;;;16.30;76.80;;;;;;6047012;23;20030;-77
2022/09/20 14:38:06;;;;;;;5.18;0.90;;;16.20;76.70;;;;;;6046562;23;20014;-76
2022/09/20 14:40:44;;;;;;;5.10;1.40;;;16.10;76.90;;;;;;6046928;23;20003;-76
2022/09/20 14:43:31;;;;;;;6.03;1.53;;;16.20;76.70;;;;;;6045432;23;20007;-76
2022/09/20 14:46:08;;;;;;;4.57;1.07;;;16.10;75.20;;;;;;6046751;23;20445;-79
2022/09/20 14:48:41;;;;;;;2.42;0.82;;;16.10;74.90;;;;;;6022202;23;20027;-76
2022/09/20 14:51:24;;;;;;;4.07;0.98;;;16.10;73.70;;;;;;6047106;23;20031;-75
2022/09/20 14:54:10;;;;;;;4.55;1.05;;;16.20;75.30;;;;;;6044978;23;20015;-76
2022/09/20 14:57:20;;;;;;;4.45;1.60;;;16.40;75.60;;;;;;6045067;23;20202;-80
2022/09/20 15:00:20;;;;;;;4.43;2.00;;;16.70;75.20;;;;;;6039647;23;20038;-78
2022/09/20 15:03:08;;;;;;;3.83;1.52;;;16.70;72.80;;;;;;6043817;23;20011;-79
2022/09/20 15:06:08;;;;;;;5.60;1.13;;;16.90;72.40;;;;;;6026928;23;20296;-80
2022/09/20 15:08:42;;;;;;;3.10;1.33;;;17.00;71.40;;;;;;6022207;23;20015;-75
2022/09/20 15:11:20;;;;;;;3.45;1.05;;;17.40;71.50;;;;;;6021541;23;20015;-75
2022/09/20 15:13:49;;;;;;;4.72;1.10;;;18.00;70.80;;;;;;6046752;23;20301;-77
2022/09/20 15:16:29;;;;;;;3.65;1.05;;;18.30;71.80;;;;;;6045192;23;20007;-76
2022/09/20 15:19:18;;;;;;;3.25;0.90;;;18.80;69.60;;;;;;6025242;23;20041;-75
2022/09/20 15:21:47;;;;;;;3.08;0.90;;;19.00;67.10;;;;;;6046724;23;20207;-75
2022/09/20 15:27:56;;;;;;;2.05;0.93;;;20.50;66.30;;;;;;6038517;23;20063;-75
2022/09/20 15:30:57;;;;;;;3.20;0.70;;;22.20;62.90;;;;;;6045214;23;20054;-72
2022/09/20 15:33:22;;;;;;;3.47;0.70;;;24.00;60.00;;;;;;6045487;23;20078;-74
2022/09/20 15:36:17;;;;;;;1.80;0.50;;;25.70;55.00;;;;;;6046338;23;20269;-76
2022/09/20 15:38:57;;;;;;;2.90;0.50;;;27.70;52.60;;;;;;6039811;23;20011;-76
2022/09/20 15:41:23;;;;;;;2.15;0.50;;;27.80;51.10;;;;;;6021920;23;20026;-77
2022/09/20 15:44:30;;;;;;;1.83;0.40;;;28.10;50.20;;;;;;6044615;23;20197;-77
2022/09/20 15:46:56;;;;;;;1.83;0.45;;;28.40;49.80;;;;;;5992610;23;20111;-80
2022/09/20 15:49:25;;;;;;;1.50;0.40;;;28.60;50.60;;;;;;6020994;23;20019;-78
2022/09/20 15:51:54;;;;;;;1.52;0.40;;;28.40;50.10;;;;;;6016656;23;20131;-80
2022/09/20 15:54:25;;;;;;;3.53;0.40;;;28.70;49.80;;;;;;6040254;23;20055;-78
2022/09/20 15:57:16;;;;;;;1.90;0.47;;;28.10;50.30;;;;;;6025660;23;20028;-78
2022/09/20 15:59:53;;;;;;;1.95;0.50;;;27.60;50.70;;;;;;6039617;23;20068;-74
2022/09/20 16:02:23;;;;;;;1.95;0.50;;;27.50;50.30;;;;;;6020079;23;20008;-73
2022/09/20 16:04:58;;;;;;;1.25;0.50;;;27.70;50.30;;;;;;5994113;23;20063;-78
2022/09/20 16:10:12;;;;;;;2.00;0.53;;;27.50;50.30;;;;;;5959519;24;20041;-74
2022/09/20 16:12:44;;;;;;;2.30;0.50;;;26.60;50.20;;;;;;5960148;24;20180;-76
2022/09/20 16:15:33;;;;;;;2.80;0.60;;;26.30;50.90;;;;;;5997242;23;20056;-73
2022/09/20 16:21:30;;;;;;;2.25;0.60;;;27.50;49.70;;;;;;6025169;23;20018;-77
2022/09/20 16:24:25;;;;;;;2.15;0.60;;;27.20;49.90;;;;;;5996204;23;20019;-74
2022/09/20 16:27:00;;;;;;;2.65;0.70;;;25.70;51.60;;;;;;6016718;23;20014;-81
2022/09/20 16:29:36;;;;;;;4.80;0.60;;;23.90;53.20;;;;;;5992359;23;20098;-80
2022/09/20 16:32:02;;;;;;;2.70;0.63;;;22.20;55.70;;;;;;5990251;23;20035;-75
2022/09/20 16:34:38;;;;;;;1.75;0.60;;;20.80;61.20;;;;;;6014995;23;20277;-76
2022/09/20 16:37:25;;;;;;;3.53;0.75;;;19.80;61.00;;;;;;6016600;23;20175;-78
2022/09/20 16:39:51;;;;;;;4.35;0.77;;;19.20;63.00;;;;;;5990263;23;20008;-77
2022/09/20 16:42:21;;;;;;;2.92;0.73;;;18.30;65.50;;;;;;6016681;23;20013;-76
2022/09/20 16:45:07;;;;;;;2.85;1.00;;;17.70;68.00;;;;;;5996382;23;20265;-75
2022/09/20 16:47:36;;;;;;;3.17;1.00;;;17.30;69.80;;;;;;6015757;23;20004;-75
2022/09/20 16:53:53;;;;;;;3.08;1.10;;;16.80;71.50;;;;;;5908910;24;20053;-80
2022/09/20 16:57:01;;;;;;;3.03;1.00;;;16.50;71.70;;;;;;5931202;24;20367;-78
2022/09/20 16:59:39;;;;;;;3.40;0.80;;;16.40;73.70;;;;;;5931287;24;20009;-78
2022/09/20 17:23:32;;;;;;;5.00;1.67;;;15.40;79.00;;;;;;6143546;23;20009;-78
2022/09/20 17:26:30;;;;;;;3.65;1.40;;;15.30;80.50;;;;;;6168490;23;20002;-79
2022/09/20 17:29:12;;;;;;;3.80;1.63;;;15.10;78.90;;;;;;6166613;23;20021;-79
2022/09/20 17:31:59;;;;;;;4.47;1.60;;;14.90;79.80;;;;;;6168753;23;20033;-76
2022/09/20 17:37:58;;;;;;;6.68;2.40;;;14.70;83.80;;;;;;6109155;23;20504;-78
2022/09/20 17:41:38;;;;;;;5.22;1.83;;;14.60;83.10;;;;;;6109481;23;20025;-78
2022/09/20 17:47:21;;;;;;;6.32;2.15;;;14.40;84.70;;;;;;6010673;23;20037;-76
2022/09/20 17:49:49;;;;;;;5.13;2.20;;;14.30;85.70;;;;;;6051236;23;20391;-78
2022/09/20 17:52:46;;;;;;;4.55;1.73;;;14.30;84.70;;;;;;6051266;23;20015;-78
2022/09/20 17:55:15;;;;;;;5.18;2.10;;;14.20;85.30;;;;;;6051515;23;20013;-77
2022/09/20 17:57:59;;;;;;;5.20;1.85;;;14.10;85.70;;;;;;6052175;23;20022;-76
2022/09/20 18:01:06;;;;;;;5.28;1.80;;;14.10;86.10;;;;;;6100256;23;20005;-77
2022/09/20 18:04:03;;;;;;;5.70;1.98;;;14.00;87.20;;;;;;6167251;23;20019;-77
2022/09/20 18:13:01;;;;;;;4.57;2.00;;;13.80;88.40;;;;;;6138388;23;20093;-78
2022/09/20 18:15:45;;;;;;;6.20;2.22;;;13.60;88.90;;;;;;6136134;23;20065;-76
2022/09/20 18:18:53;;;;;;;4.97;2.10;;;13.50;89.20;;;;;;6131106;23;20343;-77
2022/09/20 18:24:51;;;;;;;5.78;2.10;;;13.40;90.40;;;;;;6241415;22;20019;-76
2022/09/20 18:27:30;;;;;;;5.65;2.42;;;13.30;90.30;;;;;;6229637;23;20012;-76
2022/09/20 18:30:02;;;;;;;7.20;2.85;;;13.10;90.60;;;;;;6253699;22;20008;-78
2022/09/20 18:32:55;;;;;;;7.65;3.55;;;13.00;91.00;;;;;;6251689;22;20224;-79
2022/09/20 18:35:22;;;;;;;;;;;12.90;91.50;;;;;;6254349;22;20051;-79
2022/09/20 18:37:48;;;;;;;7.95;2.60;;;12.90;91.40;;;;;;6252886;23;19899;-74
2022/09/20 18:40:14;;;;;;;3.95;2.10;;;12.90;91.70;;;;;;6252165;23;20007;-77
2022/09/20 18:42:39;;;;;;;5.47;2.38;;;12.90;92.00;;;;;;6254090;22;20000;-73
2022/09/20 18:45:11;;;;;;;7.10;2.90;;;12.80;92.30;;;;;;6253789;22;20038;-75
2022/09/20 18:55:44;;;;;;;6.60;2.67;;;12.50;93.00;;;;;;6222224;23;20088;-75
2022/09/20 19:18:35;;;;;;;7.32;4.18;;;11.80;96.80;;;;;;6259656;22;20046;-78
2022/09/20 19:21:29;;;;;;;14.75;9.73;;;11.80;97.20;;;;;;6265874;22;20078;-76
2022/09/20 19:24:16;;;;;;;10.57;4.85;;;11.80;97.50;;;;;;6346146;22;20011;-76
2022/09/20 19:26:56;;;;;;;10.13;4.55;;;11.80;97.60;;;;;;6318665;22;20315;-78
2022/09/20 19:29:27;;;;;;;13.23;6.43;;;11.80;97.80;;;;;;6345841;22;20002;-77
2022/09/20 19:32:05;;;;;;;10.10;5.70;;;11.80;97.90;;;;;;6318123;22;20014;-77
2022/09/20 19:35:20;;;;;;;9.52;4.45;;;11.80;98.20;;;;;;6347389;22;20044;-77
2022/09/20 19:38:35;;;;;;;8.60;4.50;;;11.70;98.20;;;;;;6346571;22;20460;-76
2022/09/20 19:41:12;;;;;;;9.80;4.72;;;11.60;98.80;;;;;;6345815;22;19999;-77
2022/09/20 19:44:05;;;;;;;9.25;4.10;;;11.50;99.20;;;;;;6346461;22;20003;-76
2022/09/20 19:46:49;;;;;;;7.00;4.05;;;11.50;99.40;;;;;;6318705;22;20174;-76
2022/09/20 19:49:47;;;;;;;7.93;3.97;;;11.30;99.90;;;;;;6346221;22;20010;-76
2022/09/20 19:52:13;;;;;;;9.00;4.00;;;11.30;99.90;;;;;;6346087;22;19994;-77
2022/09/20 19:54:39;;;;;;;9.85;4.80;;;11.30;99.90;;;;;;6319068;22;20006;-76
2022/09/20 19:57:11;;;;;;;9.93;5.10;;;11.30;99.90;;;;;;6318484;22;20308;-77
2022/09/20 19:59:38;;;;;;;8.15;4.55;;;11.20;99.90;;;;;;6346860;22;19995;-76
2022/09/20 20:02:04;;;;;;;8.93;4.85;;;11.20;99.90;;;;;;6310919;22;19993;-75
2022/09/20 20:04:30;;;;;;;9.07;5.10;;;11.20;99.90;;;;;;6344894;22;20059;-77
2022/09/20 20:07:26;;;;;;;10.10;4.90;;;11.10;99.90;;;;;;6346441;22;19998;-75
2022/09/20 20:10:17;;;;;;;11.15;5.78;;;11.00;99.90;;;;;;6346894;22;19994;-76
2022/09/20 20:12:56;;;;;;;14.30;5.90;;;11.00;99.90;;;;;;6345331;22;20005;-77
2022/09/20 20:15:37;;;;;;;12.00;5.32;;;10.90;99.90;;;;;;6346161;22;20428;-76
2022/09/20 20:18:16;;;;;;;15.55;6.07;;;10.80;99.90;;;;;;6344481;22;20007;-76
2022/09/20 20:20:55;;;;;;;12.73;5.82;;;10.70;99.90;;;;;;6346119;22;20299;-76
2022/09/20 20:24:08;;;;;;;10.10;5.55;;;10.60;99.90;;;;;;6344991;22;20030;-79
2022/09/20 20:26:36;;;;;;;13.43;7.93;;;10.60;99.90;;;;;;6195770;23;20042;-78
2022/09/20 20:29:03;;;;;;;15.82;8.27;;;10.60;99.90;;;;;;6195241;23;20008;-79
2022/09/20 20:32:40;;;;;;;12.45;6.68;;;10.60;99.90;;;;;;6295290;22;20017;-79
2022/09/20 20:35:11;;;;;;;12.15;6.57;;;10.60;99.90;;;;;;6345922;22;20044;-79
2022/09/20 20:41:51;;;;;;;9.23;4.93;;;10.40;99.90;;;;;;6345879;22;20006;-80
2022/09/20 20:48:01;;;;;;;9.38;4.50;;;10.20;99.90;;;;;;6346679;22;20010;-81
2022/09/20 20:54:19;;;;;;;12.07;4.93;;;10.00;99.90;;;;;;6346457;22;20010;-79
2022/09/20 20:57:02;;;;;;;10.82;4.97;;;9.90;99.90;;;;;;6330201;22;20003;-78
2022/09/20 20:59:52;;;;;;;11.07;5.18;;;9.80;99.90;;;;;;6345360;22;20017;-80
2022/09/20 21:02:38;;;;;;;9.93;5.13;;;9.80;99.90;;;;;;6345426;22;20003;-80
2022/09/20 21:05:04;;;;;;;9.38;5.72;;;9.70;99.90;;;;;;6345988;22;20003;-79
2022/09/20 21:07:30;;;;;;;11.38;5.75;;;9.70;99.90;;;;;;6345980;22;20050;-78